sensor_id;sensor_type;location;lat;lon;timestamp;temperature;humidity
48007;DHT22;33771;48.180;11.400;2023-02-26T00:01:24;-0.80;99.90
48007;DHT22;33771;48.180;11.400;2023-02-26T00:03:52;-0.70;99.90
48007;DHT22;33771;48.180;11.400;2023-02-26T00:06:18;-0.70;99.90
48007;DHT22;33771;48.180;11.400;2023-02-26T00:08:44;-0.70;99.90
48007;DHT22;33771;48.180;11.400;2023-02-26T00:11:10;-0.70;99.90
48007;DHT22;33771;48.180;11.400;2023-02-26T00:13:37;-0.80;99.90
48007;DHT22;33771;48.180;11.400;2023-02-26T00:16:09;-0.80;99.90
48007;DHT22;33771;48.180;11.400;2023-02-26T00:18:37;-0.90;99.90
48007;DHT22;33771;48.180;11.400;2023-02-26T00:21:03;-0.90;99.90
48007;DHT22;33771;48.180;11.400;2023-02-26T00:23:29;-0.90;99.90
48007;DHT22;33771;48.180;11.400;2023-02-26T00:25:57;-0.90;99.90
48007;DHT22;33771;48.180;11.400;2023-02-26T00:28:23;-0.90;99.90
48007;DHT22;33771;48.180;11.400;2023-02-26T00:30:48;-0.90;99.90
48007;DHT22;33771;48.180;11.400;2023-02-26T00:33:14;-0.90;99.90
48007;DHT22;33771;48.180;11.400;2023-02-26T00:35:40;-0.70;99.90
48007;DHT22;33771;48.180;11.400;2023-02-26T00:38:09;-0.70;99.90
48007;DHT22;33771;48.180;11.400;2023-02-26T00:43:18;-0.80;99.90
48007;DHT22;33771;48.180;11.400;2023-02-26T00:46:11;-0.90;99.90
48007;DHT22;33771;48.180;11.400;2023-02-26T00:48:54;-0.90;99.90
48007;DHT22;33771;48.180;11.400;2023-02-26T00:54:29;-1.00;99.90
48007;DHT22;33771;48.180;11.400;2023-02-26T00:56:56;-1.00;99.90
48007;DHT22;33771;48.180;11.400;2023-02-26T00:59:23;-1.00;99.90
48007;DHT22;33771;48.180;11.400;2023-02-26T01:01:50;-1.00;99.90
48007;DHT22;33771;48.180;11.400;2023-02-26T01:04:18;-1.00;99.90
48007;DHT22;33771;48.180;11.400;2023-02-26T01:06:50;-1.00;99.90
48007;DHT22;33771;48.180;11.400;2023-02-26T01:09:26;-1.10;99.90
48007;DHT22;33771;48.180;11.400;2023-02-26T01:15:15;-1.00;99.90
48007;DHT22;33771;48.180;11.400;2023-02-26T01:18:01;-1.10;99.90
48007;DHT22;33771;48.180;11.400;2023-02-26T01:20:41;-1.10;99.90
48007;DHT22;33771;48.180;11.400;2023-02-26T01:23:16;-1.10;99.90
48007;DHT22;33771;48.180;11.400;2023-02-26T01:25:44;-1.10;99.90
48007;DHT22;33771;48.180;11.400;2023-02-26T01:28:13;-1.10;99.90
48007;DHT22;33771;48.180;11.400;2023-02-26T01:30:39;-1.20;99.90
48007;DHT22;33771;48.180;11.400;2023-02-26T01:35:57;-1.30;99.90
48007;DHT22;33771;48.180;11.400;2023-02-26T01:38:35;-1.30;99.90
48007;DHT22;33771;48.180;11.400;2023-02-26T01:43:45;-1.40;99.90
48007;DHT22;33771;48.180;11.400;2023-02-26T01:48:49;-1.30;99.90
48007;DHT22;33771;48.180;11.400;2023-02-26T01:51:15;-1.30;99.90
48007;DHT22;33771;48.180;11.400;2023-02-26T01:53:41;-1.30;99.90
48007;DHT22;33771;48.180;11.400;2023-02-26T01:56:17;-1.30;99.90
48007;DHT22;33771;48.180;11.400;2023-02-26T01:58:46;-1.30;99.90
48007;DHT22;33771;48.180;11.400;2023-02-26T02:01:13;-1.30;99.90
48007;DHT22;33771;48.180;11.400;2023-02-26T02:03:40;-1.40;99.90
48007;DHT22;33771;48.180;11.400;2023-02-26T02:06:16;-1.40;99.90
48007;DHT22;33771;48.180;11.400;2023-02-26T02:08:42;-1.40;99.90
48007;DHT22;33771;48.180;11.400;2023-02-26T02:11:10;-1.30;99.90
48007;DHT22;33771;48.180;11.400;2023-02-26T02:32:09;-1.40;99.90
48007;DHT22;33771;48.180;11.400;2023-02-26T02:34:56;-1.40;99.90
48007;DHT22;33771;48.180;11.400;2023-02-26T02:37:37;-1.30;99.90
48007;DHT22;33771;48.180;11.400;2023-02-26T02:40:22;-1.30;99.90
48007;DHT22;33771;48.180;11.400;2023-02-26T02:43:18;-1.30;99.90
48007;DHT22;33771;48.180;11.400;2023-02-26T02:45:55;-1.40;99.90
48007;DHT22;33771;48.180;11.400;2023-02-26T02:48:31;-1.40;99.90
48007;DHT22;33771;48.180;11.400;2023-02-26T02:51:19;-1.40;99.90
48007;DHT22;33771;48.180;11.400;2023-02-26T02:53:54;-1.40;99.90
48007;DHT22;33771;48.180;11.400;2023-02-26T02:59:30;-1.50;99.90
48007;DHT22;33771;48.180;11.400;2023-02-26T03:02:06;-1.50;99.90
48007;DHT22;33771;48.180;11.400;2023-02-26T03:04:33;-1.50;99.90
48007;DHT22;33771;48.180;11.400;2023-02-26T03:06:58;-1.60;99.90
48007;DHT22;33771;48.180;11.400;2023-02-26T03:09:24;-1.70;99.90
48007;DHT22;33771;48.180;11.400;2023-02-26T03:11:50;-1.70;99.90
48007;DHT22;33771;48.180;11.400;2023-02-26T03:14:15;-1.70;99.90
48007;DHT22;33771;48.180;11.400;2023-02-26T03:24:37;-1.70;99.90
48007;DHT22;33771;48.180;11.400;2023-02-26T03:27:32;-1.80;99.90
48007;DHT22;33771;48.180;11.400;2023-02-26T03:32:40;-1.80;99.90
48007;DHT22;33771;48.180;11.400;2023-02-26T03:35:16;-1.90;99.90
48007;DHT22;33771;48.180;11.400;2023-02-26T03:40:17;-1.90;99.90
48007;DHT22;33771;48.180;11.400;2023-02-26T03:42:47;-1.90;99.90
48007;DHT22;33771;48.180;11.400;2023-02-26T03:45:18;-1.90;99.90
48007;DHT22;33771;48.180;11.400;2023-02-26T03:47:47;-1.90;99.90
48007;DHT22;33771;48.180;11.400;2023-02-26T03:50:18;-1.90;99.90
48007;DHT22;33771;48.180;11.400;2023-02-26T03:52:47;-1.90;99.90
48007;DHT22;33771;48.180;11.400;2023-02-26T03:55:15;-1.90;99.90
48007;DHT22;33771;48.180;11.400;2023-02-26T03:57:42;-1.90;99.90
48007;DHT22;33771;48.180;11.400;2023-02-26T04:00:09;-1.90;99.90
48007;DHT22;33771;48.180;11.400;2023-02-26T04:02:46;-2.00;99.90
48007;DHT22;33771;48.180;11.400;2023-02-26T04:05:28;-2.00;99.90
48007;DHT22;33771;48.180;11.400;2023-02-26T04:07:56;-2.00;99.90
48007;DHT22;33771;48.180;11.400;2023-02-26T04:10:29;-2.00;99.90
48007;DHT22;33771;48.180;11.400;2023-02-26T04:13:01;-2.00;99.90
48007;DHT22;33771;48.180;11.400;2023-02-26T04:15:27;-2.00;99.90
48007;DHT22;33771;48.180;11.400;2023-02-26T04:17:52;-2.10;99.90
48007;DHT22;33771;48.180;11.400;2023-02-26T04:20:18;-2.00;99.90
48007;DHT22;33771;48.180;11.400;2023-02-26T04:22:44;-2.00;99.90
48007;DHT22;33771;48.180;11.400;2023-02-26T04:25:09;-2.10;99.90
48007;DHT22;33771;48.180;11.400;2023-02-26T04:27:35;-2.10;99.90
48007;DHT22;33771;48.180;11.400;2023-02-26T04:30:00;-2.00;99.90
48007;DHT22;33771;48.180;11.400;2023-02-26T04:32:26;-2.10;99.90
48007;DHT22;33771;48.180;11.400;2023-02-26T04:34:51;-2.10;99.90
48007;DHT22;33771;48.180;11.400;2023-02-26T04:37:17;-2.10;99.90
48007;DHT22;33771;48.180;11.400;2023-02-26T04:39:42;-2.10;99.90
48007;DHT22;33771;48.180;11.400;2023-02-26T04:42:08;-2.20;99.90
48007;DHT22;33771;48.180;11.400;2023-02-26T04:44:33;-2.20;99.90
48007;DHT22;33771;48.180;11.400;2023-02-26T04:46:59;-2.20;99.90
48007;DHT22;33771;48.180;11.400;2023-02-26T04:49:24;-2.30;99.90
48007;DHT22;33771;48.180;11.400;2023-02-26T04:51:50;-2.30;99.90
48007;DHT22;33771;48.180;11.400;2023-02-26T04:54:15;-2.30;99.90
48007;DHT22;33771;48.180;11.400;2023-02-26T04:56:41;-2.30;99.90
48007;DHT22;33771;48.180;11.400;2023-02-26T04:59:06;-2.30;99.90
48007;DHT22;33771;48.180;11.400;2023-02-26T05:01:32;-2.40;99.90
48007;DHT22;33771;48.180;11.400;2023-02-26T05:03:58;-2.40;99.90
48007;DHT22;33771;48.180;11.400;2023-02-26T05:06:24;-2.40;99.90
48007;DHT22;33771;48.180;11.400;2023-02-26T05:08:49;-2.50;99.90
48007;DHT22;33771;48.180;11.400;2023-02-26T05:11:15;-2.50;99.90
48007;DHT22;33771;48.180;11.400;2023-02-26T05:13:40;-2.60;99.90
48007;DHT22;33771;48.180;11.400;2023-02-26T05:16:06;-2.60;99.90
48007;DHT22;33771;48.180;11.400;2023-02-26T05:18:32;-2.70;99.90
48007;DHT22;33771;48.180;11.400;2023-02-26T05:20:58;-2.70;99.90
48007;DHT22;33771;48.180;11.400;2023-02-26T05:23:24;-2.80;99.90
48007;DHT22;33771;48.180;11.400;2023-02-26T05:25:49;-2.80;99.90
48007;DHT22;33771;48.180;11.400;2023-02-26T05:28:15;-2.80;99.90
48007;DHT22;33771;48.180;11.400;2023-02-26T05:30:41;-2.90;99.90
48007;DHT22;33771;48.180;11.400;2023-02-26T05:33:07;-2.90;99.90
48007;DHT22;33771;48.180;11.400;2023-02-26T05:35:33;-3.00;99.90
48007;DHT22;33771;48.180;11.400;2023-02-26T05:37:58;-3.00;99.90
48007;DHT22;33771;48.180;11.400;2023-02-26T05:40:24;-3.00;99.90
48007;DHT22;33771;48.180;11.400;2023-02-26T05:42:50;-3.10;99.90
48007;DHT22;33771;48.180;11.400;2023-02-26T05:45:16;-3.10;99.90
48007;DHT22;33771;48.180;11.400;2023-02-26T05:47:42;-3.20;99.90
48007;DHT22;33771;48.180;11.400;2023-02-26T05:50:08;-3.20;99.90
48007;DHT22;33771;48.180;11.400;2023-02-26T05:52:34;-3.20;99.90
48007;DHT22;33771;48.180;11.400;2023-02-26T05:55:01;-3.30;99.90
48007;DHT22;33771;48.180;11.400;2023-02-26T05:57:26;-3.30;99.90
48007;DHT22;33771;48.180;11.400;2023-02-26T05:59:52;-3.30;99.90
48007;DHT22;33771;48.180;11.400;2023-02-26T06:02:18;-3.30;99.90
48007;DHT22;33771;48.180;11.400;2023-02-26T06:04:44;-3.40;99.90
48007;DHT22;33771;48.180;11.400;2023-02-26T06:07:09;-3.40;99.90
48007;DHT22;33771;48.180;11.400;2023-02-26T06:09:37;-3.40;99.90
48007;DHT22;33771;48.180;11.400;2023-02-26T06:12:03;-3.50;99.90
48007;DHT22;33771;48.180;11.400;2023-02-26T06:14:28;-3.50;99.90
48007;DHT22;33771;48.180;11.400;2023-02-26T06:16:54;-3.50;99.90
48007;DHT22;33771;48.180;11.400;2023-02-26T06:19:20;-3.50;99.90
48007;DHT22;33771;48.180;11.400;2023-02-26T06:21:46;-3.50;99.90
48007;DHT22;33771;48.180;11.400;2023-02-26T06:24:12;-3.50;99.90
48007;DHT22;33771;48.180;11.400;2023-02-26T06:26:37;-3.50;99.90
48007;DHT22;33771;48.180;11.400;2023-02-26T06:29:03;-3.50;99.90
48007;DHT22;33771;48.180;11.400;2023-02-26T06:31:28;-3.50;99.90
48007;DHT22;33771;48.180;11.400;2023-02-26T06:33:54;-3.50;99.90
48007;DHT22;33771;48.180;11.400;2023-02-26T06:36:19;-3.60;99.90
48007;DHT22;33771;48.180;11.400;2023-02-26T06:38:45;-3.60;99.90
48007;DHT22;33771;48.180;11.400;2023-02-26T06:41:11;-3.70;99.90
48007;DHT22;33771;48.180;11.400;2023-02-26T06:43:37;-3.70;99.90
48007;DHT22;33771;48.180;11.400;2023-02-26T06:46:02;-3.70;99.90
48007;DHT22;33771;48.180;11.400;2023-02-26T06:48:28;-3.70;99.90
48007;DHT22;33771;48.180;11.400;2023-02-26T06:50:54;-3.70;99.90
48007;DHT22;33771;48.180;11.400;2023-02-26T06:53:19;-3.70;99.90
48007;DHT22;33771;48.180;11.400;2023-02-26T06:55:46;-3.70;99.90
48007;DHT22;33771;48.180;11.400;2023-02-26T06:58:13;-3.70;99.90
48007;DHT22;33771;48.180;11.400;2023-02-26T07:00:39;-3.60;99.90
48007;DHT22;33771;48.180;11.400;2023-02-26T07:03:06;-3.60;99.90
48007;DHT22;33771;48.180;11.400;2023-02-26T07:05:31;-3.60;99.90
48007;DHT22;33771;48.180;11.400;2023-02-26T07:07:57;-3.60;99.90
48007;DHT22;33771;48.180;11.400;2023-02-26T07:10:23;-3.60;99.90
48007;DHT22;33771;48.180;11.400;2023-02-26T07:12:50;-3.60;99.90
48007;DHT22;33771;48.180;11.400;2023-02-26T07:15:15;-3.60;99.90
48007;DHT22;33771;48.180;11.400;2023-02-26T07:17:42;-3.50;99.90
48007;DHT22;33771;48.180;11.400;2023-02-26T07:20:08;-3.40;99.90
48007;DHT22;33771;48.180;11.400;2023-02-26T07:22:35;-3.40;99.90
48007;DHT22;33771;48.180;11.400;2023-02-26T07:25:02;-3.30;99.90
48007;DHT22;33771;48.180;11.400;2023-02-26T07:27:28;-3.20;99.90
48007;DHT22;33771;48.180;11.400;2023-02-26T07:29:54;-3.20;99.90
48007;DHT22;33771;48.180;11.400;2023-02-26T07:32:21;-3.10;99.90
48007;DHT22;33771;48.180;11.400;2023-02-26T07:34:46;-3.10;99.90
48007;DHT22;33771;48.180;11.400;2023-02-26T07:37:13;-3.10;99.90
48007;DHT22;33771;48.180;11.400;2023-02-26T07:39:39;-3.00;99.90
48007;DHT22;33771;48.180;11.400;2023-02-26T07:42:05;-3.00;99.90
48007;DHT22;33771;48.180;11.400;2023-02-26T07:44:30;-2.90;99.90
48007;DHT22;33771;48.180;11.400;2023-02-26T07:46:56;-2.80;99.90
48007;DHT22;33771;48.180;11.400;2023-02-26T07:49:21;-2.80;99.90
48007;DHT22;33771;48.180;11.400;2023-02-26T07:51:47;-2.70;99.90
48007;DHT22;33771;48.180;11.400;2023-02-26T07:54:14;-2.70;99.90
48007;DHT22;33771;48.180;11.400;2023-02-26T07:56:40;-2.60;99.90
48007;DHT22;33771;48.180;11.400;2023-02-26T07:59:08;-2.50;99.90
48007;DHT22;33771;48.180;11.400;2023-02-26T08:01:34;-2.40;99.90
48007;DHT22;33771;48.180;11.400;2023-02-26T08:04:00;-2.40;99.90
48007;DHT22;33771;48.180;11.400;2023-02-26T08:06:26;-2.40;99.90
48007;DHT22;33771;48.180;11.400;2023-02-26T08:08:51;-2.30;99.90
48007;DHT22;33771;48.180;11.400;2023-02-26T08:11:17;-2.20;99.90
48007;DHT22;33771;48.180;11.400;2023-02-26T08:13:42;-2.20;99.90
48007;DHT22;33771;48.180;11.400;2023-02-26T08:16:08;-2.10;99.90
48007;DHT22;33771;48.180;11.400;2023-02-26T08:18:33;-2.10;99.90
48007;DHT22;33771;48.180;11.400;2023-02-26T08:20:59;-2.10;99.90
48007;DHT22;33771;48.180;11.400;2023-02-26T08:23:24;-2.00;99.90
48007;DHT22;33771;48.180;11.400;2023-02-26T08:26:00;-2.00;99.90
48007;DHT22;33771;48.180;11.400;2023-02-26T08:28:26;-2.00;99.90
48007;DHT22;33771;48.180;11.400;2023-02-26T08:30:52;-2.00;99.90
48007;DHT22;33771;48.180;11.400;2023-02-26T08:33:18;-1.90;99.90
48007;DHT22;33771;48.180;11.400;2023-02-26T08:35:43;-1.90;99.90
48007;DHT22;33771;48.180;11.400;2023-02-26T08:38:09;-1.90;99.90
48007;DHT22;33771;48.180;11.400;2023-02-26T08:40:35;-1.90;99.90
48007;DHT22;33771;48.180;11.400;2023-02-26T08:43:00;-2.00;99.90
48007;DHT22;33771;48.180;11.400;2023-02-26T08:45:28;-2.00;99.90
48007;DHT22;33771;48.180;11.400;2023-02-26T08:47:54;-2.00;99.90
48007;DHT22;33771;48.180;11.400;2023-02-26T08:50:20;-1.90;99.90
48007;DHT22;33771;48.180;11.400;2023-02-26T08:52:45;-1.90;99.90
48007;DHT22;33771;48.180;11.400;2023-02-26T08:55:11;-1.90;99.90
48007;DHT22;33771;48.180;11.400;2023-02-26T08:57:36;-1.90;99.90
48007;DHT22;33771;48.180;11.400;2023-02-26T09:00:04;-1.80;99.90
48007;DHT22;33771;48.180;11.400;2023-02-26T09:02:30;-1.90;99.90
48007;DHT22;33771;48.180;11.400;2023-02-26T09:04:55;-1.90;99.90
48007;DHT22;33771;48.180;11.400;2023-02-26T09:07:21;-1.90;99.90
48007;DHT22;33771;48.180;11.400;2023-02-26T09:09:46;-1.80;99.90
48007;DHT22;33771;48.180;11.400;2023-02-26T09:12:12;-1.80;99.90
48007;DHT22;33771;48.180;11.400;2023-02-26T09:14:37;-1.80;99.90
48007;DHT22;33771;48.180;11.400;2023-02-26T09:17:03;-1.80;99.90
48007;DHT22;33771;48.180;11.400;2023-02-26T09:19:28;-1.90;99.90
48007;DHT22;33771;48.180;11.400;2023-02-26T09:21:54;-1.90;99.90
48007;DHT22;33771;48.180;11.400;2023-02-26T09:24:20;-1.90;99.90
48007;DHT22;33771;48.180;11.400;2023-02-26T09:26:45;-1.80;99.90
48007;DHT22;33771;48.180;11.400;2023-02-26T09:29:11;-1.80;99.90
48007;DHT22;33771;48.180;11.400;2023-02-26T09:31:37;-1.80;99.90
48007;DHT22;33771;48.180;11.400;2023-02-26T09:34:03;-1.70;99.90
48007;DHT22;33771;48.180;11.400;2023-02-26T09:36:28;-1.70;99.90
48007;DHT22;33771;48.180;11.400;2023-02-26T09:38:58;-1.60;99.90
48007;DHT22;33771;48.180;11.400;2023-02-26T09:41:34;-1.50;99.90
48007;DHT22;33771;48.180;11.400;2023-02-26T09:47:05;-1.40;99.90
48007;DHT22;33771;48.180;11.400;2023-02-26T09:52:36;-1.30;99.90
48007;DHT22;33771;48.180;11.400;2023-02-26T09:57:42;-1.40;99.90
48007;DHT22;33771;48.180;11.400;2023-02-26T10:08:32;-1.40;99.90
48007;DHT22;33771;48.180;11.400;2023-02-26T10:11:06;-1.40;99.90
48007;DHT22;33771;48.180;11.400;2023-02-26T10:13:43;-1.40;99.90
48007;DHT22;33771;48.180;11.400;2023-02-26T10:16:14;-1.40;99.90
48007;DHT22;33771;48.180;11.400;2023-02-26T10:18:50;-1.40;99.90
48007;DHT22;33771;48.180;11.400;2023-02-26T10:21:40;-1.40;99.90
48007;DHT22;33771;48.180;11.400;2023-02-26T10:24:38;-1.40;99.90
48007;DHT22;33771;48.180;11.400;2023-02-26T10:27:11;-1.30;99.90
48007;DHT22;33771;48.180;11.400;2023-02-26T10:29:52;-1.20;99.90
48007;DHT22;33771;48.180;11.400;2023-02-26T10:32:25;-1.00;99.90
48007;DHT22;33771;48.180;11.400;2023-02-26T10:35:12;-0.90;99.90
48007;DHT22;33771;48.180;11.400;2023-02-26T10:43:09;-0.80;99.90
48007;DHT22;33771;48.180;11.400;2023-02-26T10:45:58;-0.80;99.90
48007;DHT22;33771;48.180;11.400;2023-02-26T10:51:17;-0.90;99.90
48007;DHT22;33771;48.180;11.400;2023-02-26T10:53:47;-0.90;99.90
48007;DHT22;33771;48.180;11.400;2023-02-26T10:56:20;-0.90;99.90
48007;DHT22;33771;48.180;11.400;2023-02-26T10:58:49;-0.80;99.90
48007;DHT22;33771;48.180;11.400;2023-02-26T11:01:18;-0.70;99.90
48007;DHT22;33771;48.180;11.400;2023-02-26T11:03:46;-0.70;99.90
48007;DHT22;33771;48.180;11.400;2023-02-26T11:06:22;-0.60;99.90
48007;DHT22;33771;48.180;11.400;2023-02-26T11:08:53;-0.60;99.90
48007;DHT22;33771;48.180;11.400;2023-02-26T11:14:13;-0.60;99.90
48007;DHT22;33771;48.180;11.400;2023-02-26T11:17:03;-0.60;99.90
48007;DHT22;33771;48.180;11.400;2023-02-26T11:19:38;-0.50;99.90
48007;DHT22;33771;48.180;11.400;2023-02-26T11:22:05;-0.50;99.90
48007;DHT22;33771;48.180;11.400;2023-02-26T11:24:48;-0.50;99.90
48007;DHT22;33771;48.180;11.400;2023-02-26T11:27:17;-0.40;99.90
48007;DHT22;33771;48.180;11.400;2023-02-26T11:29:48;-0.40;99.90
48007;DHT22;33771;48.180;11.400;2023-02-26T11:32:21;-0.30;99.90
48007;DHT22;33771;48.180;11.400;2023-02-26T11:34:49;-0.20;99.90
48007;DHT22;33771;48.180;11.400;2023-02-26T11:37:23;-0.20;99.90
48007;DHT22;33771;48.180;11.400;2023-02-26T11:39:57;-0.20;99.90
48007;DHT22;33771;48.180;11.400;2023-02-26T11:42:23;-0.10;99.90
48007;DHT22;33771;48.180;11.400;2023-02-26T11:44:49;-0.20;99.90
48007;DHT22;33771;48.180;11.400;2023-02-26T11:47:24;-0.30;99.90
48007;DHT22;33771;48.180;11.400;2023-02-26T11:49:54;-0.30;99.90
48007;DHT22;33771;48.180;11.400;2023-02-26T11:55:20;-0.40;99.90
48007;DHT22;33771;48.180;11.400;2023-02-26T11:57:56;-0.40;99.90
48007;DHT22;33771;48.180;11.400;2023-02-26T12:00:30;-0.30;99.90
48007;DHT22;33771;48.180;11.400;2023-02-26T12:03:04;-0.20;99.90
48007;DHT22;33771;48.180;11.400;2023-02-26T12:05:33;-0.10;99.90
48007;DHT22;33771;48.180;11.400;2023-02-26T12:07:59;-0.10;99.90
48007;DHT22;33771;48.180;11.400;2023-02-26T12:10:40;0.00;99.90
48007;DHT22;33771;48.180;11.400;2023-02-26T12:13:23;0.00;99.90
48007;DHT22;33771;48.180;11.400;2023-02-26T12:26:40;0.20;99.90
48007;DHT22;33771;48.180;11.400;2023-02-26T12:35:10;1.10;99.90
48007;DHT22;33771;48.180;11.400;2023-02-26T12:38:11;1.30;99.90
48007;DHT22;33771;48.180;11.400;2023-02-26T12:40:55;1.50;99.90
48007;DHT22;33771;48.180;11.400;2023-02-26T12:43:46;1.60;99.90
48007;DHT22;33771;48.180;11.400;2023-02-26T12:54:25;1.00;99.90
48007;DHT22;33771;48.180;11.400;2023-02-26T13:03:21;1.20;99.90
48007;DHT22;33771;48.180;11.400;2023-02-26T13:06:10;1.50;99.90
48007;DHT22;33771;48.180;11.400;2023-02-26T13:14:37;1.40;99.90
48007;DHT22;33771;48.180;11.400;2023-02-26T13:17:34;1.30;99.90
48007;DHT22;33771;48.180;11.400;2023-02-26T13:20:18;1.10;99.90
48007;DHT22;33771;48.180;11.400;2023-02-26T13:23:00;0.70;99.90
48007;DHT22;33771;48.180;11.400;2023-02-26T13:25:36;0.40;99.90
48007;DHT22;33771;48.180;11.400;2023-02-26T13:28:34;0.20;99.90
48007;DHT22;33771;48.180;11.400;2023-02-26T13:31:10;0.10;99.90
48007;DHT22;33771;48.180;11.400;2023-02-26T13:33:37;0.10;99.90
48007;DHT22;33771;48.180;11.400;2023-02-26T13:36:04;0.00;99.90
48007;DHT22;33771;48.180;11.400;2023-02-26T13:38:56;-0.10;99.90
48007;DHT22;33771;48.180;11.400;2023-02-26T13:41:43;-0.10;99.90
48007;DHT22;33771;48.180;11.400;2023-02-26T13:44:51;0.00;99.90
48007;DHT22;33771;48.180;11.400;2023-02-26T13:50:41;0.50;99.90
48007;DHT22;33771;48.180;11.400;2023-02-26T13:55:51;0.70;99.90
48007;DHT22;33771;48.180;11.400;2023-02-26T13:58:35;0.70;99.90
48007;DHT22;33771;48.180;11.400;2023-02-26T14:01:14;0.80;99.90
48007;DHT22;33771;48.180;11.400;2023-02-26T14:03:52;0.70;99.90
48007;DHT22;33771;48.180;11.400;2023-02-26T14:11:57;0.70;99.90
48007;DHT22;33771;48.180;11.400;2023-02-26T14:14:38;0.70;99.90
48007;DHT22;33771;48.180;11.400;2023-02-26T14:22:22;1.00;99.90
48007;DHT22;33771;48.180;11.400;2023-02-26T14:32:32;1.10;99.90
48007;DHT22;33771;48.180;11.400;2023-02-26T14:35:04;1.20;99.90
48007;DHT22;33771;48.180;11.400;2023-02-26T14:37:32;1.30;99.90
48007;DHT22;33771;48.180;11.400;2023-02-26T14:40:09;1.40;99.90
48007;DHT22;33771;48.180;11.400;2023-02-26T14:42:49;1.50;99.90
48007;DHT22;33771;48.180;11.400;2023-02-26T14:48:11;1.50;99.90
48007;DHT22;33771;48.180;11.400;2023-02-26T14:53:59;1.70;99.90
48007;DHT22;33771;48.180;11.400;2023-02-26T14:57:03;1.70;99.90
48007;DHT22;33771;48.180;11.400;2023-02-26T15:02:18;1.60;99.90
48007;DHT22;33771;48.180;11.400;2023-02-26T15:05:10;1.40;99.90
48007;DHT22;33771;48.180;11.400;2023-02-26T15:10:40;1.20;99.90
48007;DHT22;33771;48.180;11.400;2023-02-26T15:21:16;1.10;99.90
48007;DHT22;33771;48.180;11.400;2023-02-26T15:23:53;1.00;99.90
48007;DHT22;33771;48.180;11.400;2023-02-26T15:26:20;1.00;99.90
48007;DHT22;33771;48.180;11.400;2023-02-26T15:28:48;1.10;99.90
48007;DHT22;33771;48.180;11.400;2023-02-26T15:31:16;1.10;99.90
48007;DHT22;33771;48.180;11.400;2023-02-26T15:33:42;1.20;99.90
48007;DHT22;33771;48.180;11.400;2023-02-26T15:36:14;1.20;99.90
48007;DHT22;33771;48.180;11.400;2023-02-26T15:38:47;1.20;99.90
48007;DHT22;33771;48.180;11.400;2023-02-26T15:41:14;1.30;99.90
48007;DHT22;33771;48.180;11.400;2023-02-26T15:43:54;1.20;99.90
48007;DHT22;33771;48.180;11.400;2023-02-26T15:46:28;1.20;99.90
48007;DHT22;33771;48.180;11.400;2023-02-26T15:49:01;1.10;99.90
48007;DHT22;33771;48.180;11.400;2023-02-26T15:51:29;1.00;99.90
48007;DHT22;33771;48.180;11.400;2023-02-26T15:53:55;0.90;99.90
48007;DHT22;33771;48.180;11.400;2023-02-26T15:56:25;0.80;99.90
48007;DHT22;33771;48.180;11.400;2023-02-26T15:59:00;0.80;99.90
48007;DHT22;33771;48.180;11.400;2023-02-26T16:01:27;0.80;99.90
48007;DHT22;33771;48.180;11.400;2023-02-26T16:03:57;0.70;99.90
48007;DHT22;33771;48.180;11.400;2023-02-26T16:06:32;0.70;99.90
48007;DHT22;33771;48.180;11.400;2023-02-26T16:08:59;0.60;99.90
48007;DHT22;33771;48.180;11.400;2023-02-26T16:11:30;0.50;99.90
48007;DHT22;33771;48.180;11.400;2023-02-26T16:13:58;0.50;99.90
48007;DHT22;33771;48.180;11.400;2023-02-26T16:16:27;0.50;99.90
48007;DHT22;33771;48.180;11.400;2023-02-26T16:18:54;0.40;99.90
48007;DHT22;33771;48.180;11.400;2023-02-26T16:21:39;0.40;99.90
48007;DHT22;33771;48.180;11.400;2023-02-26T16:24:08;0.50;99.90
48007;DHT22;33771;48.180;11.400;2023-02-26T16:26:40;0.40;99.90
48007;DHT22;33771;48.180;11.400;2023-02-26T16:29:20;0.50;99.90
48007;DHT22;33771;48.180;11.400;2023-02-26T16:31:51;0.50;99.90
48007;DHT22;33771;48.180;11.400;2023-02-26T16:37:10;0.40;99.90
48007;DHT22;33771;48.180;11.400;2023-02-26T16:39:43;0.30;99.90
48007;DHT22;33771;48.180;11.400;2023-02-26T16:42:15;0.30;99.90
48007;DHT22;33771;48.180;11.400;2023-02-26T16:47:35;0.20;99.90
48007;DHT22;33771;48.180;11.400;2023-02-26T16:50:03;0.20;99.90
48007;DHT22;33771;48.180;11.400;2023-02-26T16:52:29;0.20;99.90
48007;DHT22;33771;48.180;11.400;2023-02-26T16:54:59;-0.10;99.90
48007;DHT22;33771;48.180;11.400;2023-02-26T16:57:35;-0.30;99.90
48007;DHT22;33771;48.180;11.400;2023-02-26T17:00:10;-0.60;99.90
48007;DHT22;33771;48.180;11.400;2023-02-26T17:02:37;-0.80;99.90
48007;DHT22;33771;48.180;11.400;2023-02-26T17:05:21;-0.80;99.90
48007;DHT22;33771;48.180;11.400;2023-02-26T17:08:04;-0.90;99.90
48007;DHT22;33771;48.180;11.400;2023-02-26T17:10:52;-1.00;99.90
48007;DHT22;33771;48.180;11.400;2023-02-26T17:13:27;-1.00;99.90
48007;DHT22;33771;48.180;11.400;2023-02-26T17:15:58;-1.00;99.90
48007;DHT22;33771;48.180;11.400;2023-02-26T17:18:24;-1.00;99.90
48007;DHT22;33771;48.180;11.400;2023-02-26T17:20:49;-1.00;99.90
48007;DHT22;33771;48.180;11.400;2023-02-26T17:23:17;-0.90;99.90
48007;DHT22;33771;48.180;11.400;2023-02-26T17:25:47;-0.90;99.90
48007;DHT22;33771;48.180;11.400;2023-02-26T17:28:20;-0.90;99.90
48007;DHT22;33771;48.180;11.400;2023-02-26T17:30:47;-0.90;99.90
48007;DHT22;33771;48.180;11.400;2023-02-26T17:33:13;-0.90;99.90
48007;DHT22;33771;48.180;11.400;2023-02-26T17:35:39;-0.90;99.90
48007;DHT22;33771;48.180;11.400;2023-02-26T17:38:05;-0.80;99.90
48007;DHT22;33771;48.180;11.400;2023-02-26T17:40:34;-0.80;99.90
48007;DHT22;33771;48.180;11.400;2023-02-26T17:43:03;-0.80;99.90
48007;DHT22;33771;48.180;11.400;2023-02-26T17:45:31;-0.70;99.90
48007;DHT22;33771;48.180;11.400;2023-02-26T17:47:57;-0.60;99.90
48007;DHT22;33771;48.180;11.400;2023-02-26T17:50:44;-0.50;99.90
48007;DHT22;33771;48.180;11.400;2023-02-26T17:53:15;-0.40;99.90
48007;DHT22;33771;48.180;11.400;2023-02-26T17:55:41;-0.40;99.90
48007;DHT22;33771;48.180;11.400;2023-02-26T17:58:14;-0.50;99.90
48007;DHT22;33771;48.180;11.400;2023-02-26T18:00:41;-0.40;99.90
48007;DHT22;33771;48.180;11.400;2023-02-26T18:03:09;-0.40;99.90
48007;DHT22;33771;48.180;11.400;2023-02-26T18:05:36;-0.30;99.90
48007;DHT22;33771;48.180;11.400;2023-02-26T18:08:19;-0.40;99.90
48007;DHT22;33771;48.180;11.400;2023-02-26T18:10:45;-0.50;99.90
48007;DHT22;33771;48.180;11.400;2023-02-26T18:13:11;-0.60;99.90
48007;DHT22;33771;48.180;11.400;2023-02-26T18:15:37;-0.70;99.90
48007;DHT22;33771;48.180;11.400;2023-02-26T18:18:03;-0.70;99.90
48007;DHT22;33771;48.180;11.400;2023-02-26T18:20:30;-0.80;99.90
48007;DHT22;33771;48.180;11.400;2023-02-26T18:22:56;-0.80;99.90
48007;DHT22;33771;48.180;11.400;2023-02-26T18:25:22;-0.90;99.90
48007;DHT22;33771;48.180;11.400;2023-02-26T18:27:51;-0.90;99.90
48007;DHT22;33771;48.180;11.400;2023-02-26T18:30:23;-1.00;99.90